sensor_id;sensor_type;location;lat;lon;timestamp;P1;durP1;ratioP1;P2;durP2;ratioP2
68940;SDS011;55982;51.476;7.552;2023-03-31T00:01:48;9.38;;;1.95;;
68940;SDS011;55982;51.476;7.552;2023-03-31T00:04:13;6.35;;;1.63;;
68940;SDS011;55982;51.476;7.552;2023-03-31T00:06:39;3.97;;;1.55;;
68940;SDS011;55982;51.476;7.552;2023-03-31T00:11:34;3.75;;;1.42;;
68940;SDS011;55982;51.476;7.552;2023-03-31T00:14:00;7.00;;;1.58;;
68940;SDS011;55982;51.476;7.552;2023-03-31T00:16:27;7.28;;;1.75;;
68940;SDS011;55982;51.476;7.552;2023-03-31T00:18:52;11.48;;;2.10;;
68940;SDS011;55982;51.476;7.552;2023-03-31T00:21:21;11.10;;;1.50;;
68940;SDS011;55982;51.476;7.552;2023-03-31T00:23:53;9.23;;;1.70;;
68940;SDS011;55982;51.476;7.552;2023-03-31T00:26:26;6.50;;;1.83;;
68940;SDS011;55982;51.476;7.552;2023-03-31T00:28:53;5.00;;;1.80;;
68940;SDS011;55982;51.476;7.552;2023-03-31T00:31:19;10.10;;;1.60;;
68940;SDS011;55982;51.476;7.552;2023-03-31T00:33:44;6.57;;;1.52;;
68940;SDS011;55982;51.476;7.552;2023-03-31T00:36:10;12.80;;;2.10;;
68940;SDS011;55982;51.476;7.552;2023-03-31T00:38:35;10.23;;;2.00;;
68940;SDS011;55982;51.476;7.552;2023-03-31T00:41:01;8.38;;;1.55;;
68940;SDS011;55982;51.476;7.552;2023-03-31T00:43:35;7.82;;;1.70;;
68940;SDS011;55982;51.476;7.552;2023-03-31T00:48:33;5.28;;;1.42;;
68940;SDS011;55982;51.476;7.552;2023-03-31T00:51:03;7.00;;;1.80;;
68940;SDS011;55982;51.476;7.552;2023-03-31T00:53:31;8.35;;;1.90;;
68940;SDS011;55982;51.476;7.552;2023-03-31T00:55:59;10.35;;;1.42;;
68940;SDS011;55982;51.476;7.552;2023-03-31T00:58:30;11.20;;;1.75;;
68940;SDS011;55982;51.476;7.552;2023-03-31T01:00:57;6.55;;;1.42;;
68940;SDS011;55982;51.476;7.552;2023-03-31T01:03:26;7.75;;;1.58;;
68940;SDS011;55982;51.476;7.552;2023-03-31T01:05:56;5.38;;;1.75;;
68940;SDS011;55982;51.476;7.552;2023-03-31T01:08:29;7.88;;;1.95;;
68940;SDS011;55982;51.476;7.552;2023-03-31T01:11:01;8.95;;;2.28;;
68940;SDS011;55982;51.476;7.552;2023-03-31T01:13:28;7.32;;;1.50;;
68940;SDS011;55982;51.476;7.552;2023-03-31T01:15:55;6.25;;;1.42;;
68940;SDS011;55982;51.476;7.552;2023-03-31T01:18:21;9.55;;;1.67;;
68940;SDS011;55982;51.476;7.552;2023-03-31T01:43:25;11.10;;;2.67;;
68940;SDS011;55982;51.476;7.552;2023-03-31T01:48:47;7.10;;;2.40;;
68940;SDS011;55982;51.476;7.552;2023-03-31T01:51:18;7.82;;;1.83;;
68940;SDS011;55982;51.476;7.552;2023-03-31T01:56:45;7.20;;;1.98;;
68940;SDS011;55982;51.476;7.552;2023-03-31T01:59:17;12.55;;;2.50;;
68940;SDS011;55982;51.476;7.552;2023-03-31T02:01:55;5.80;;;1.95;;
68940;SDS011;55982;51.476;7.552;2023-03-31T02:04:34;8.10;;;1.98;;
68940;SDS011;55982;51.476;7.552;2023-03-31T02:07:03;13.85;;;2.65;;
68940;SDS011;55982;51.476;7.552;2023-03-31T02:09:37;6.43;;;2.03;;
68940;SDS011;55982;51.476;7.552;2023-03-31T02:12:08;8.30;;;2.60;;
68940;SDS011;55982;51.476;7.552;2023-03-31T02:14:36;12.23;;;2.28;;
68940;SDS011;55982;51.476;7.552;2023-03-31T02:17:14;9.35;;;2.28;;
68940;SDS011;55982;51.476;7.552;2023-03-31T02:19:48;5.20;;;2.10;;
68940;SDS011;55982;51.476;7.552;2023-03-31T02:22:15;6.10;;;2.05;;
68940;SDS011;55982;51.476;7.552;2023-03-31T02:24:43;9.35;;;2.13;;
68940;SDS011;55982;51.476;7.552;2023-03-31T02:27:15;14.65;;;2.28;;
68940;SDS011;55982;51.476;7.552;2023-03-31T02:29:49;6.95;;;2.30;;
68940;SDS011;55982;51.476;7.552;2023-03-31T02:32:36;10.38;;;2.53;;
68940;SDS011;55982;51.476;7.552;2023-03-31T02:35:03;11.85;;;2.60;;
68940;SDS011;55982;51.476;7.552;2023-03-31T02:37:31;11.15;;;2.50;;
68940;SDS011;55982;51.476;7.552;2023-03-31T02:39:58;8.35;;;2.33;;
68940;SDS011;55982;51.476;7.552;2023-03-31T02:42:28;7.78;;;2.28;;
68940;SDS011;55982;51.476;7.552;2023-03-31T02:44:59;10.02;;;2.47;;
68940;SDS011;55982;51.476;7.552;2023-03-31T02:47:26;15.43;;;2.50;;
68940;SDS011;55982;51.476;7.552;2023-03-31T02:49:52;10.63;;;2.55;;
68940;SDS011;55982;51.476;7.552;2023-03-31T02:55:02;8.90;;;2.60;;
68940;SDS011;55982;51.476;7.552;2023-03-31T03:00:27;11.35;;;2.13;;
68940;SDS011;55982;51.476;7.552;2023-03-31T03:06:10;10.50;;;2.80;;
68940;SDS011;55982;51.476;7.552;2023-03-31T03:08:34;12.17;;;2.63;;
68940;SDS011;55982;51.476;7.552;2023-03-31T03:17:05;12.25;;;3.00;;
68940;SDS011;55982;51.476;7.552;2023-03-31T03:19:34;11.57;;;2.80;;
68940;SDS011;55982;51.476;7.552;2023-03-31T03:22:00;13.27;;;2.92;;
68940;SDS011;55982;51.476;7.552;2023-03-31T03:24:25;19.23;;;2.63;;
68940;SDS011;55982;51.476;7.552;2023-03-31T03:26:53;14.13;;;2.83;;
68940;SDS011;55982;51.476;7.552;2023-03-31T03:29:19;14.65;;;3.70;;
68940;SDS011;55982;51.476;7.552;2023-03-31T03:31:45;15.38;;;3.17;;
68940;SDS011;55982;51.476;7.552;2023-03-31T03:34:10;10.90;;;3.20;;
68940;SDS011;55982;51.476;7.552;2023-03-31T03:36:39;12.25;;;2.78;;
68940;SDS011;55982;51.476;7.552;2023-03-31T03:39:05;15.07;;;2.60;;
68940;SDS011;55982;51.476;7.552;2023-03-31T03:41:32;12.73;;;3.15;;
68940;SDS011;55982;51.476;7.552;2023-03-31T03:43:58;8.48;;;2.95;;
68940;SDS011;55982;51.476;7.552;2023-03-31T03:46:24;15.60;;;4.00;;
68940;SDS011;55982;51.476;7.552;2023-03-31T03:48:50;11.77;;;3.00;;
68940;SDS011;55982;51.476;7.552;2023-03-31T03:51:16;16.73;;;3.17;;
68940;SDS011;55982;51.476;7.552;2023-03-31T03:53:41;17.75;;;3.50;;
68940;SDS011;55982;51.476;7.552;2023-03-31T03:56:09;18.02;;;5.88;;
68940;SDS011;55982;51.476;7.552;2023-03-31T03:58:35;11.95;;;2.67;;
68940;SDS011;55982;51.476;7.552;2023-03-31T04:01:00;11.10;;;2.42;;
68940;SDS011;55982;51.476;7.552;2023-03-31T04:03:26;19.10;;;3.38;;
68940;SDS011;55982;51.476;7.552;2023-03-31T04:05:51;16.13;;;3.22;;
68940;SDS011;55982;51.476;7.552;2023-03-31T04:08:17;10.93;;;2.70;;
68940;SDS011;55982;51.476;7.552;2023-03-31T04:10:46;16.23;;;3.15;;
68940;SDS011;55982;51.476;7.552;2023-03-31T04:13:22;14.52;;;3.10;;
68940;SDS011;55982;51.476;7.552;2023-03-31T04:15:47;9.93;;;2.65;;
68940;SDS011;55982;51.476;7.552;2023-03-31T04:18:13;11.20;;;2.78;;
68940;SDS011;55982;51.476;7.552;2023-03-31T04:20:46;11.73;;;2.95;;
68940;SDS011;55982;51.476;7.552;2023-03-31T04:23:18;12.57;;;3.10;;
68940;SDS011;55982;51.476;7.552;2023-03-31T04:25:45;9.80;;;3.00;;
68940;SDS011;55982;51.476;7.552;2023-03-31T04:28:10;12.95;;;2.80;;
68940;SDS011;55982;51.476;7.552;2023-03-31T04:30:38;11.43;;;3.08;;
68940;SDS011;55982;51.476;7.552;2023-03-31T04:33:04;13.73;;;3.67;;
68940;SDS011;55982;51.476;7.552;2023-03-31T04:35:30;13.15;;;2.65;;
68940;SDS011;55982;51.476;7.552;2023-03-31T04:38:07;15.18;;;2.63;;
68940;SDS011;55982;51.476;7.552;2023-03-31T04:40:32;11.50;;;2.40;;
68940;SDS011;55982;51.476;7.552;2023-03-31T04:42:59;11.68;;;2.65;;
68940;SDS011;55982;51.476;7.552;2023-03-31T04:45:25;11.98;;;2.30;;
68940;SDS011;55982;51.476;7.552;2023-03-31T04:47:51;9.70;;;2.78;;
68940;SDS011;55982;51.476;7.552;2023-03-31T04:50:16;14.40;;;2.33;;
68940;SDS011;55982;51.476;7.552;2023-03-31T04:52:42;12.73;;;3.13;;
68940;SDS011;55982;51.476;7.552;2023-03-31T04:55:07;9.20;;;2.15;;
68940;SDS011;55982;51.476;7.552;2023-03-31T04:57:33;11.32;;;2.30;;
68940;SDS011;55982;51.476;7.552;2023-03-31T04:59:59;9.93;;;2.40;;
68940;SDS011;55982;51.476;7.552;2023-03-31T05:02:24;13.77;;;2.38;;
68940;SDS011;55982;51.476;7.552;2023-03-31T05:04:50;13.43;;;2.85;;
68940;SDS011;55982;51.476;7.552;2023-03-31T05:07:16;8.52;;;2.40;;
68940;SDS011;55982;51.476;7.552;2023-03-31T05:09:42;9.55;;;2.22;;
68940;SDS011;55982;51.476;7.552;2023-03-31T05:12:07;10.38;;;2.85;;
68940;SDS011;55982;51.476;7.552;2023-03-31T05:14:33;14.30;;;2.70;;
68940;SDS011;55982;51.476;7.552;2023-03-31T05:16:58;13.80;;;2.72;;
68940;SDS011;55982;51.476;7.552;2023-03-31T05:19:23;10.38;;;2.60;;
68940;SDS011;55982;51.476;7.552;2023-03-31T05:21:49;12.90;;;2.80;;
68940;SDS011;55982;51.476;7.552;2023-03-31T05:24:14;14.38;;;3.13;;
68940;SDS011;55982;51.476;7.552;2023-03-31T05:26:40;10.10;;;2.40;;
68940;SDS011;55982;51.476;7.552;2023-03-31T05:29:05;13.82;;;2.92;;
68940;SDS011;55982;51.476;7.552;2023-03-31T05:31:34;6.85;;;2.70;;
68940;SDS011;55982;51.476;7.552;2023-03-31T05:33:59;13.25;;;3.42;;
68940;SDS011;55982;51.476;7.552;2023-03-31T05:36:25;8.25;;;2.60;;
68940;SDS011;55982;51.476;7.552;2023-03-31T05:38:51;10.80;;;2.85;;
68940;SDS011;55982;51.476;7.552;2023-03-31T05:41:16;9.75;;;2.92;;
68940;SDS011;55982;51.476;7.552;2023-03-31T05:43:41;11.00;;;2.90;;
68940;SDS011;55982;51.476;7.552;2023-03-31T05:46:07;6.38;;;2.35;;
68940;SDS011;55982;51.476;7.552;2023-03-31T05:48:33;6.20;;;2.65;;
68940;SDS011;55982;51.476;7.552;2023-03-31T05:50:59;12.52;;;2.58;;
68940;SDS011;55982;51.476;7.552;2023-03-31T05:53:25;11.27;;;2.90;;
68940;SDS011;55982;51.476;7.552;2023-03-31T05:56:01;6.30;;;1.73;;
68940;SDS011;55982;51.476;7.552;2023-03-31T05:58:30;6.57;;;2.85;;
68940;SDS011;55982;51.476;7.552;2023-03-31T06:00:59;7.80;;;2.20;;
68940;SDS011;55982;51.476;7.552;2023-03-31T06:03:32;10.30;;;2.10;;
68940;SDS011;55982;51.476;7.552;2023-03-31T06:05:59;7.90;;;1.80;;
68940;SDS011;55982;51.476;7.552;2023-03-31T06:08:26;8.93;;;2.22;;
68940;SDS011;55982;51.476;7.552;2023-03-31T06:10:54;6.85;;;1.67;;
68940;SDS011;55982;51.476;7.552;2023-03-31T06:13:20;5.22;;;1.73;;
68940;SDS011;55982;51.476;7.552;2023-03-31T06:15:55;4.95;;;1.80;;
68940;SDS011;55982;51.476;7.552;2023-03-31T06:18:22;7.65;;;1.92;;
68940;SDS011;55982;51.476;7.552;2023-03-31T06:20:48;7.95;;;2.47;;
68940;SDS011;55982;51.476;7.552;2023-03-31T06:23:15;6.70;;;1.63;;
68940;SDS011;55982;51.476;7.552;2023-03-31T06:25:40;9.00;;;1.80;;
68940;SDS011;55982;51.476;7.552;2023-03-31T06:28:06;11.00;;;1.60;;
68940;SDS011;55982;51.476;7.552;2023-03-31T06:30:31;7.47;;;1.90;;
68940;SDS011;55982;51.476;7.552;2023-03-31T06:32:57;6.00;;;1.88;;
68940;SDS011;55982;51.476;7.552;2023-03-31T06:35:22;9.77;;;1.77;;
68940;SDS011;55982;51.476;7.552;2023-03-31T06:37:48;4.53;;;1.40;;
68940;SDS011;55982;51.476;7.552;2023-03-31T06:40:13;6.18;;;1.65;;
68940;SDS011;55982;51.476;7.552;2023-03-31T06:42:39;9.85;;;1.65;;
68940;SDS011;55982;51.476;7.552;2023-03-31T06:45:04;4.28;;;1.55;;
68940;SDS011;55982;51.476;7.552;2023-03-31T06:47:30;4.10;;;1.63;;
68940;SDS011;55982;51.476;7.552;2023-03-31T06:49:55;6.15;;;1.65;;
68940;SDS011;55982;51.476;7.552;2023-03-31T06:52:21;10.68;;;1.90;;
68940;SDS011;55982;51.476;7.552;2023-03-31T06:54:46;5.20;;;1.45;;
68940;SDS011;55982;51.476;7.552;2023-03-31T06:57:11;9.68;;;1.60;;
68940;SDS011;55982;51.476;7.552;2023-03-31T06:59:37;4.60;;;1.60;;
68940;SDS011;55982;51.476;7.552;2023-03-31T07:02:02;5.53;;;1.88;;
68940;SDS011;55982;51.476;7.552;2023-03-31T07:04:28;8.88;;;1.77;;
68940;SDS011;55982;51.476;7.552;2023-03-31T07:06:53;6.30;;;1.63;;
68940;SDS011;55982;51.476;7.552;2023-03-31T07:09:18;4.65;;;1.73;;
68940;SDS011;55982;51.476;7.552;2023-03-31T07:11:47;10.23;;;2.00;;
68940;SDS011;55982;51.476;7.552;2023-03-31T07:14:12;5.63;;;1.70;;
68940;SDS011;55982;51.476;7.552;2023-03-31T07:16:37;7.07;;;1.52;;
68940;SDS011;55982;51.476;7.552;2023-03-31T07:19:03;7.75;;;1.63;;
68940;SDS011;55982;51.476;7.552;2023-03-31T07:21:29;7.20;;;1.65;;
68940;SDS011;55982;51.476;7.552;2023-03-31T07:23:55;4.95;;;1.27;;
68940;SDS011;55982;51.476;7.552;2023-03-31T07:26:21;5.82;;;1.20;;
68940;SDS011;55982;51.476;7.552;2023-03-31T07:28:46;6.35;;;1.20;;
68940;SDS011;55982;51.476;7.552;2023-03-31T07:31:12;7.50;;;1.58;;
68940;SDS011;55982;51.476;7.552;2023-03-31T07:33:38;9.15;;;1.80;;
68940;SDS011;55982;51.476;7.552;2023-03-31T07:36:04;4.72;;;1.75;;
68940;SDS011;55982;51.476;7.552;2023-03-31T07:38:30;5.65;;;1.25;;
68940;SDS011;55982;51.476;7.552;2023-03-31T07:40:55;5.45;;;1.40;;
68940;SDS011;55982;51.476;7.552;2023-03-31T07:43:21;6.38;;;1.73;;
68940;SDS011;55982;51.476;7.552;2023-03-31T07:45:46;6.93;;;1.90;;
68940;SDS011;55982;51.476;7.552;2023-03-31T07:48:11;5.78;;;1.80;;
68940;SDS011;55982;51.476;7.552;2023-03-31T07:50:37;6.78;;;1.67;;
68940;SDS011;55982;51.476;7.552;2023-03-31T07:53:02;5.47;;;1.60;;
68940;SDS011;55982;51.476;7.552;2023-03-31T07:55:28;5.35;;;1.60;;
68940;SDS011;55982;51.476;7.552;2023-03-31T07:57:53;4.00;;;1.88;;
68940;SDS011;55982;51.476;7.552;2023-03-31T08:00:19;5.97;;;1.40;;
68940;SDS011;55982;51.476;7.552;2023-03-31T08:02:45;5.55;;;1.20;;
68940;SDS011;55982;51.476;7.552;2023-03-31T08:05:11;1.92;;;0.98;;
68940;SDS011;55982;51.476;7.552;2023-03-31T08:07:39;5.18;;;1.52;;
68940;SDS011;55982;51.476;7.552;2023-03-31T08:10:08;4.07;;;1.20;;
68940;SDS011;55982;51.476;7.552;2023-03-31T08:12:35;4.55;;;1.20;;
68940;SDS011;55982;51.476;7.552;2023-03-31T08:15:01;5.30;;;1.05;;
68940;SDS011;55982;51.476;7.552;2023-03-31T08:17:26;5.03;;;1.48;;
68940;SDS011;55982;51.476;7.552;2023-03-31T08:19:51;4.05;;;1.10;;
68940;SDS011;55982;51.476;7.552;2023-03-31T08:22:17;8.80;;;1.30;;
68940;SDS011;55982;51.476;7.552;2023-03-31T08:24:43;4.97;;;1.30;;
68940;SDS011;55982;51.476;7.552;2023-03-31T08:27:08;4.70;;;1.33;;
68940;SDS011;55982;51.476;7.552;2023-03-31T08:29:33;5.30;;;1.30;;
68940;SDS011;55982;51.476;7.552;2023-03-31T08:31:59;4.28;;;1.27;;
68940;SDS011;55982;51.476;7.552;2023-03-31T08:34:24;2.90;;;1.10;;
68940;SDS011;55982;51.476;7.552;2023-03-31T08:36:51;7.05;;;1.33;;
68940;SDS011;55982;51.476;7.552;2023-03-31T08:39:16;4.05;;;1.05;;
68940;SDS011;55982;51.476;7.552;2023-03-31T08:44:33;3.63;;;1.25;;
68940;SDS011;55982;51.476;7.552;2023-03-31T08:47:06;4.30;;;1.42;;
68940;SDS011;55982;51.476;7.552;2023-03-31T08:49:40;3.10;;;0.80;;
68940;SDS011;55982;51.476;7.552;2023-03-31T08:52:12;3.92;;;1.00;;
68940;SDS011;55982;51.476;7.552;2023-03-31T08:54:42;3.38;;;0.98;;
68940;SDS011;55982;51.476;7.552;2023-03-31T09:00:18;4.60;;;2.03;;
68940;SDS011;55982;51.476;7.552;2023-03-31T09:02:55;3.40;;;0.93;;
68940;SDS011;55982;51.476;7.552;2023-03-31T09:05:34;7.10;;;1.42;;
68940;SDS011;55982;51.476;7.552;2023-03-31T09:10:53;4.00;;;1.00;;
68940;SDS011;55982;51.476;7.552;2023-03-31T09:16:25;4.22;;;1.30;;
68940;SDS011;55982;51.476;7.552;2023-03-31T09:19:00;5.80;;;1.17;;
68940;SDS011;55982;51.476;7.552;2023-03-31T09:21:30;5.35;;;1.20;;
68940;SDS011;55982;51.476;7.552;2023-03-31T09:24:17;6.82;;;0.90;;
68940;SDS011;55982;51.476;7.552;2023-03-31T09:27:05;5.07;;;1.48;;
68940;SDS011;55982;51.476;7.552;2023-03-31T09:32:22;7.65;;;1.55;;
68940;SDS011;55982;51.476;7.552;2023-03-31T09:34:51;5.22;;;1.48;;
68940;SDS011;55982;51.476;7.552;2023-03-31T09:37:21;4.05;;;1.40;;
68940;SDS011;55982;51.476;7.552;2023-03-31T09:39:49;4.35;;;2.15;;
68940;SDS011;55982;51.476;7.552;2023-03-31T09:42:14;5.60;;;1.35;;
68940;SDS011;55982;51.476;7.552;2023-03-31T09:44:41;5.60;;;2.50;;
68940;SDS011;55982;51.476;7.552;2023-03-31T09:47:11;8.40;;;1.60;;
68940;SDS011;55982;51.476;7.552;2023-03-31T09:49:44;3.83;;;1.40;;
68940;SDS011;55982;51.476;7.552;2023-03-31T09:52:12;4.75;;;1.25;;
68940;SDS011;55982;51.476;7.552;2023-03-31T09:54:48;2.80;;;1.23;;
68940;SDS011;55982;51.476;7.552;2023-03-31T09:57:28;3.22;;;1.15;;
68940;SDS011;55982;51.476;7.552;2023-03-31T10:05:18;4.10;;;1.55;;
68940;SDS011;55982;51.476;7.552;2023-03-31T10:08:16;7.72;;;1.67;;
68940;SDS011;55982;51.476;7.552;2023-03-31T10:10:50;6.10;;;1.63;;
68940;SDS011;55982;51.476;7.552;2023-03-31T10:13:36;4.10;;;1.60;;
68940;SDS011;55982;51.476;7.552;2023-03-31T10:16:11;11.35;;;1.80;;
68940;SDS011;55982;51.476;7.552;2023-03-31T10:18:47;5.78;;;1.80;;
68940;SDS011;55982;51.476;7.552;2023-03-31T10:21:20;6.72;;;1.42;;
68940;SDS011;55982;51.476;7.552;2023-03-31T10:23:50;6.25;;;1.67;;
68940;SDS011;55982;51.476;7.552;2023-03-31T10:26:20;6.90;;;1.48;;
68940;SDS011;55982;51.476;7.552;2023-03-31T10:28:49;6.45;;;1.25;;
68940;SDS011;55982;51.476;7.552;2023-03-31T10:31:19;9.60;;;2.30;;
68940;SDS011;55982;51.476;7.552;2023-03-31T10:33:57;6.60;;;2.13;;
68940;SDS011;55982;51.476;7.552;2023-03-31T10:36:28;10.85;;;2.53;;
68940;SDS011;55982;51.476;7.552;2023-03-31T10:38:56;8.32;;;2.08;;
68940;SDS011;55982;51.476;7.552;2023-03-31T10:41:23;6.25;;;1.70;;
68940;SDS011;55982;51.476;7.552;2023-03-31T10:43:52;4.60;;;1.70;;
68940;SDS011;55982;51.476;7.552;2023-03-31T10:46:20;6.15;;;2.20;;
68940;SDS011;55982;51.476;7.552;2023-03-31T10:48:45;6.25;;;2.00;;
68940;SDS011;55982;51.476;7.552;2023-03-31T10:53:48;9.32;;;2.05;;
68940;SDS011;55982;51.476;7.552;2023-03-31T11:12:07;9.65;;;2.58;;
68940;SDS011;55982;51.476;7.552;2023-03-31T11:17:46;16.13;;;2.60;;
68940;SDS011;55982;51.476;7.552;2023-03-31T11:26:19;10.98;;;2.30;;
68940;SDS011;55982;51.476;7.552;2023-03-31T11:29:09;8.52;;;1.98;;
68940;SDS011;55982;51.476;7.552;2023-03-31T11:42:28;11.30;;;2.55;;
68940;SDS011;55982;51.476;7.552;2023-03-31T11:45:11;9.75;;;3.00;;
68940;SDS011;55982;51.476;7.552;2023-03-31T11:47:42;15.38;;;2.78;;
68940;SDS011;55982;51.476;7.552;2023-03-31T11:50:21;10.50;;;2.22;;
68940;SDS011;55982;51.476;7.552;2023-03-31T11:53:01;10.65;;;2.28;;
68940;SDS011;55982;51.476;7.552;2023-03-31T11:55:30;5.95;;;1.38;;
68940;SDS011;55982;51.476;7.552;2023-03-31T11:58:10;5.35;;;1.20;;
68940;SDS011;55982;51.476;7.552;2023-03-31T12:00:44;7.68;;;1.45;;
68940;SDS011;55982;51.476;7.552;2023-03-31T12:03:15;5.00;;;1.10;;
68940;SDS011;55982;51.476;7.552;2023-03-31T12:05:47;9.05;;;1.75;;
68940;SDS011;55982;51.476;7.552;2023-03-31T12:08:38;10.38;;;1.40;;
68940;SDS011;55982;51.476;7.552;2023-03-31T12:11:10;4.18;;;1.10;;
68940;SDS011;55982;51.476;7.552;2023-03-31T12:13:43;6.40;;;1.25;;
68940;SDS011;55982;51.476;7.552;2023-03-31T12:16:21;4.07;;;1.00;;
68940;SDS011;55982;51.476;7.552;2023-03-31T12:21:47;5.80;;;1.17;;
68940;SDS011;55982;51.476;7.552;2023-03-31T12:24:17;7.97;;;1.17;;
68940;SDS011;55982;51.476;7.552;2023-03-31T12:26:51;4.75;;;1.40;;
68940;SDS011;55982;51.476;7.552;2023-03-31T12:29:44;4.93;;;1.10;;
68940;SDS011;55982;51.476;7.552;2023-03-31T12:34:44;8.40;;;1.95;;
68940;SDS011;55982;51.476;7.552;2023-03-31T12:40:15;5.78;;;1.08;;
68940;SDS011;55982;51.476;7.552;2023-03-31T12:42:51;4.22;;;0.98;;
68940;SDS011;55982;51.476;7.552;2023-03-31T12:53:35;2.72;;;1.20;;
68940;SDS011;55982;51.476;7.552;2023-03-31T12:56:13;6.22;;;1.58;;
68940;SDS011;55982;51.476;7.552;2023-03-31T12:58:40;9.05;;;1.40;;
68940;SDS011;55982;51.476;7.552;2023-03-31T13:04:07;6.72;;;1.75;;
68940;SDS011;55982;51.476;7.552;2023-03-31T13:06:47;8.82;;;1.38;;
68940;SDS011;55982;51.476;7.552;2023-03-31T13:11:43;7.07;;;1.20;;
68940;SDS011;55982;51.476;7.552;2023-03-31T13:14:19;9.02;;;1.98;;
68940;SDS011;55982;51.476;7.552;2023-03-31T13:16:47;5.95;;;1.38;;
68940;SDS011;55982;51.476;7.552;2023-03-31T13:21:52;7.65;;;2.17;;
68940;SDS011;55982;51.476;7.552;2023-03-31T13:24:20;9.82;;;1.83;;
68940;SDS011;55982;51.476;7.552;2023-03-31T13:26:47;8.48;;;1.63;;
68940;SDS011;55982;51.476;7.552;2023-03-31T13:40:23;8.43;;;1.92;;
68940;SDS011;55982;51.476;7.552;2023-03-31T13:48:31;9.95;;;4.20;;
68940;SDS011;55982;51.476;7.552;2023-03-31T13:56:38;12.45;;;2.50;;
68940;SDS011;55982;51.476;7.552;2023-03-31T14:02:36;9.30;;;2.20;;
68940;SDS011;55982;51.476;7.552;2023-03-31T14:05:18;11.68;;;2.45;;
68940;SDS011;55982;51.476;7.552;2023-03-31T14:08:13;7.28;;;2.40;;
68940;SDS011;55982;51.476;7.552;2023-03-31T14:10:48;9.90;;;2.50;;
68940;SDS011;55982;51.476;7.552;2023-03-31T14:13:17;11.27;;;2.17;;
68940;SDS011;55982;51.476;7.552;2023-03-31T14:16:01;8.50;;;2.05;;
68940;SDS011;55982;51.476;7.552;2023-03-31T14:18:28;6.50;;;1.90;;
68940;SDS011;55982;51.476;7.552;2023-03-31T14:28:55;7.85;;;2.00;;
68940;SDS011;55982;51.476;7.552;2023-03-31T14:31:30;11.48;;;2.38;;
68940;SDS011;55982;51.476;7.552;2023-03-31T14:36:54;10.15;;;2.33;;
68940;SDS011;55982;51.476;7.552;2023-03-31T14:39:28;8.13;;;1.95;;
68940;SDS011;55982;51.476;7.552;2023-03-31T14:42:02;11.50;;;2.33;;
68940;SDS011;55982;51.476;7.552;2023-03-31T14:44:29;13.77;;;2.00;;
68940;SDS011;55982;51.476;7.552;2023-03-31T14:46:55;12.65;;;2.53;;
68940;SDS011;55982;51.476;7.552;2023-03-31T14:49:27;8.45;;;1.83;;
68940;SDS011;55982;51.476;7.552;2023-03-31T14:51:54;8.18;;;1.75;;
68940;SDS011;55982;51.476;7.552;2023-03-31T14:54:24;8.68;;;1.70;;
68940;SDS011;55982;51.476;7.552;2023-03-31T14:56:51;6.28;;;1.73;;
68940;SDS011;55982;51.476;7.552;2023-03-31T14:59:24;7.03;;;1.73;;
68940;SDS011;55982;51.476;7.552;2023-03-31T15:01:53;8.30;;;2.00;;
68940;SDS011;55982;51.476;7.552;2023-03-31T15:04:22;9.35;;;1.80;;
68940;SDS011;55982;51.476;7.552;2023-03-31T15:06:49;10.80;;;1.40;;
68940;SDS011;55982;51.476;7.552;2023-03-31T15:09:20;6.10;;;1.73;;
68940;SDS011;55982;51.476;7.552;2023-03-31T15:11:52;7.55;;;2.00;;
68940;SDS011;55982;51.476;7.552;2023-03-31T15:14:20;7.18;;;1.40;;
68940;SDS011;55982;51.476;7.552;2023-03-31T15:16:48;8.00;;;1.40;;
68940;SDS011;55982;51.476;7.552;2023-03-31T15:19:21;10.45;;;1.90;;
68940;SDS011;55982;51.476;7.552;2023-03-31T15:24:21;10.45;;;1.48;;
68940;SDS011;55982;51.476;7.552;2023-03-31T15:29:41;10.35;;;1.77;;
68940;SDS011;55982;51.476;7.552;2023-03-31T15:32:11;7.72;;;1.48;;
68940;SDS011;55982;51.476;7.552;2023-03-31T15:34:40;8.00;;;2.00;;
68940;SDS011;55982;51.476;7.552;2023-03-31T15:37:07;6.93;;;1.60;;
68940;SDS011;55982;51.476;7.552;2023-03-31T15:39:33;6.32;;;1.40;;
68940;SDS011;55982;51.476;7.552;2023-03-31T15:42:01;8.68;;;1.77;;
68940;SDS011;55982;51.476;7.552;2023-03-31T15:47:12;7.90;;;1.88;;
68940;SDS011;55982;51.476;7.552;2023-03-31T15:52:37;8.18;;;2.08;;
68940;SDS011;55982;51.476;7.552;2023-03-31T15:55:23;7.95;;;1.48;;
68940;SDS011;55982;51.476;7.552;2023-03-31T15:57:49;6.78;;;1.60;;
68940;SDS011;55982;51.476;7.552;2023-03-31T16:02:56;7.93;;;1.40;;
68940;SDS011;55982;51.476;7.552;2023-03-31T16:06:09;3.88;;;1.52;;
68940;SDS011;55982;51.476;7.552;2023-03-31T16:08:16;8.30;;;1.65;;
68940;SDS011;55982;51.476;7.552;2023-03-31T16:10:54;11.73;;;1.80;;
68940;SDS011;55982;51.476;7.552;2023-03-31T16:13:24;13.05;;;2.33;;
68940;SDS011;55982;51.476;7.552;2023-03-31T16:15:51;12.70;;;1.75;;
68940;SDS011;55982;51.476;7.552;2023-03-31T16:18:32;11.40;;;2.30;;
68940;SDS011;55982;51.476;7.552;2023-03-31T16:21:03;16.65;;;2.50;;
68940;SDS011;55982;51.476;7.552;2023-03-31T16:23:31;10.68;;;2.47;;
68940;SDS011;55982;51.476;7.552;2023-03-31T16:26:02;14.35;;;4.05;;
68940;SDS011;55982;51.476;7.552;2023-03-31T16:28:29;10.73;;;2.25;;
68940;SDS011;55982;51.476;7.552;2023-03-31T16:30:57;6.68;;;1.60;;
68940;SDS011;55982;51.476;7.552;2023-03-31T16:33:26;4.13;;;1.00;;
68940;SDS011;55982;51.476;7.552;2023-03-31T16:35:54;8.70;;;1.00;;
68940;SDS011;55982;51.476;7.552;2023-03-31T16:38:25;8.32;;;1.20;;
68940;SDS011;55982;51.476;7.552;2023-03-31T16:40:51;7.22;;;1.63;;
68940;SDS011;55982;51.476;7.552;2023-03-31T16:43:23;5.55;;;1.30;;
68940;SDS011;55982;51.476;7.552;2023-03-31T16:48:17;3.28;;;1.40;;
68940;SDS011;55982;51.476;7.552;2023-03-31T16:50:45;4.25;;;1.52;;
68940;SDS011;55982;51.476;7.552;2023-03-31T16:53:15;5.95;;;1.50;;
68940;SDS011;55982;51.476;7.552;2023-03-31T16:55:42;7.85;;;1.40;;
68940;SDS011;55982;51.476;7.552;2023-03-31T16:58:08;5.50;;;1.40;;
68940;SDS011;55982;51.476;7.552;2023-03-31T17:00:34;4.57;;;1.30;;
68940;SDS011;55982;51.476;7.552;2023-03-31T17:03:01;3.97;;;1.33;;
68940;SDS011;55982;51.476;7.552;2023-03-31T17:05:27;4.68;;;1.02;;
68940;SDS011;55982;51.476;7.552;2023-03-31T17:07:55;5.22;;;1.13;;
68940;SDS011;55982;51.476;7.552;2023-03-31T17:10:20;4.25;;;1.05;;
68940;SDS011;55982;51.476;7.552;2023-03-31T17:12:46;5.72;;;1.20;;
68940;SDS011;55982;51.476;7.552;2023-03-31T17:15:11;4.07;;;1.40;;
68940;SDS011;55982;51.476;7.552;2023-03-31T17:17:37;4.60;;;1.25;;
68940;SDS011;55982;51.476;7.552;2023-03-31T17:20:03;8.68;;;1.40;;
68940;SDS011;55982;51.476;7.552;2023-03-31T17:22:30;6.72;;;1.35;;
68940;SDS011;55982;51.476;7.552;2023-03-31T17:24:56;9.13;;;1.40;;
68940;SDS011;55982;51.476;7.552;2023-03-31T17:27:25;8.30;;;1.50;;
68940;SDS011;55982;51.476;7.552;2023-03-31T17:29:53;6.00;;;1.75;;
68940;SDS011;55982;51.476;7.552;2023-03-31T17:32:18;3.10;;;1.20;;
68940;SDS011;55982;51.476;7.552;2023-03-31T17:34:44;6.22;;;1.15;;
68940;SDS011;55982;51.476;7.552;2023-03-31T17:37:15;5.03;;;1.30;;
68940;SDS011;55982;51.476;7.552;2023-03-31T17:39:41;3.25;;;1.10;;
68940;SDS011;55982;51.476;7.552;2023-03-31T17:42:07;4.40;;;1.40;;
68940;SDS011;55982;51.476;7.552;2023-03-31T17:44:33;3.47;;;1.17;;
68940;SDS011;55982;51.476;7.552;2023-03-31T17:46:58;3.30;;;1.52;;
68940;SDS011;55982;51.476;7.552;2023-03-31T17:49:24;3.28;;;1.50;;
68940;SDS011;55982;51.476;7.552;2023-03-31T17:51:50;8.80;;;2.50;;
68940;SDS011;55982;51.476;7.552;2023-03-31T17:54:16;9.32;;;1.40;;
68940;SDS011;55982;51.476;7.552;2023-03-31T17:56:41;5.90;;;1.52;;
68940;SDS011;55982;51.476;7.552;2023-03-31T17:59:09;4.57;;;1.27;;